Time;durP1;ratioP1;P1;durP2;ratioP2;P2;SDS_P1;SDS_P2;PMS_P1;PMS_P2;Temp;Humidity;BMP_temperature;BMP_pressure;BME280_temperature;BME280_humidity;BME280_pressure;Samples;Min_cycle;Max_cycle;Signal;HPM_P1;HPM_P2
2023/12/28 00:02:20;;;;;;;0.40;0.40;;;9.20;99.90;;;;;;5068652;28;20127;-70
2023/12/28 00:04:45;;;;;;;0.22;0.22;;;9.20;99.90;;;;;;5065725;28;20071;-70
2023/12/28 00:07:12;;;;;;;0.85;0.35;;;9.20;99.90;;;;;;5066029;28;20091;-72
2023/12/28 00:09:37;;;;;;;0.30;0.30;;;9.20;99.90;;;;;;5062943;28;20475;-70
2023/12/28 00:12:04;;;;;;;6.30;0.75;;;9.20;99.90;;;;;;5072608;28;20070;-73
2023/12/28 00:14:30;;;;;;;3.50;0.98;;;9.30;99.90;;;;;;5077576;28;20105;-72
2023/12/28 00:16:56;;;;;;;0.63;0.60;;;9.30;99.90;;;;;;5059358;28;20433;-72
2023/12/28 00:19:21;;;;;;;0.30;0.30;;;9.20;99.90;;;;;;5068311;28;20040;-74
2023/12/28 00:21:47;;;;;;;0.55;0.38;;;9.30;99.90;;;;;;5057756;28;20029;-72
2023/12/28 00:24:12;;;;;;;5.38;0.70;;;9.30;99.90;;;;;;5059859;28;20051;-72
2023/12/28 00:26:38;;;;;;;0.50;0.40;;;9.30;99.90;;;;;;5063490;28;20376;-74
2023/12/28 00:29:03;;;;;;;0.13;0.13;;;9.20;99.90;;;;;;5045493;28;20140;-71
2023/12/28 00:31:29;;;;;;;0.88;0.63;;;9.30;99.90;;;;;;5063159;28;20043;-73
2023/12/28 00:33:54;;;;;;;0.77;0.77;;;9.30;99.90;;;;;;5060552;28;20127;-71
2023/12/28 00:36:20;;;;;;;0.28;0.28;;;9.30;99.90;;;;;;5061829;28;20472;-72
2023/12/28 00:38:46;;;;;;;0.30;0.30;;;9.30;99.90;;;;;;5064739;28;20042;-69
2023/12/28 00:41:11;;;;;;;0.32;0.32;;;9.20;99.90;;;;;;5064573;28;20068;-72
2023/12/28 00:43:38;;;;;;;0.28;0.20;;;9.30;99.90;;;;;;5063955;28;20433;-72
2023/12/28 00:46:03;;;;;;;0.30;0.30;;;9.30;99.90;;;;;;5066521;28;20044;-75
2023/12/28 00:48:30;;;;;;;0.30;0.30;;;9.20;99.90;;;;;;5070278;28;20032;-71
2023/12/28 00:50:56;;;;;;;1.38;1.27;;;9.30;99.90;;;;;;5066982;28;20107;-72
2023/12/28 00:53:21;;;;;;;0.55;0.52;;;9.20;99.90;;;;;;5076158;28;20123;-72
2023/12/28 00:55:47;;;;;;;2.35;0.80;;;9.10;99.90;;;;;;5068086;28;20429;-72
2023/12/28 00:58:13;;;;;;;0.55;0.55;;;9.10;99.90;;;;;;5064147;28;20036;-72
2023/12/28 01:00:38;;;;;;;0.57;0.57;;;9.10;99.90;;;;;;5062267;28;20111;-70
2023/12/28 01:03:04;;;;;;;1.08;0.40;;;9.10;99.90;;;;;;5068673;28;20454;-71
2023/12/28 01:05:29;;;;;;;0.85;0.50;;;9.10;99.90;;;;;;5059017;28;20036;-71
2023/12/28 01:07:55;;;;;;;1.42;1.33;;;9.10;99.90;;;;;;5072236;28;20041;-71
2023/12/28 01:10:21;;;;;;;0.52;0.52;;;9.10;99.90;;;;;;5064595;28;20101;-72
2023/12/28 01:12:46;;;;;;;2.63;0.98;;;9.10;99.90;;;;;;5067154;28;20046;-74
2023/12/28 01:15:12;;;;;;;0.45;0.45;;;9.10;99.90;;;;;;5061347;28;20037;-70
2023/12/28 01:17:38;;;;;;;0.20;0.20;;;9.10;99.90;;;;;;5068505;28;20062;-73
2023/12/28 01:20:06;;;;;;;0.35;0.35;;;9.20;99.90;;;;;;5062037;28;20041;-71
2023/12/28 01:22:31;;;;;;;1.70;0.85;;;9.10;99.90;;;;;;5064776;28;20041;-73
2023/12/28 01:24:57;;;;;;;1.42;0.52;;;9.10;99.90;;;;;;5064680;28;20465;-72
2023/12/28 01:27:22;;;;;;;0.40;0.40;;;9.10;99.90;;;;;;5048483;28;20457;-75
2023/12/28 01:29:48;;;;;;;0.28;0.28;;;9.20;99.90;;;;;;5064860;28;20032;-72
2023/12/28 01:32:13;;;;;;;0.85;0.45;;;9.20;99.90;;;;;;5059800;28;20032;-71
2023/12/28 01:34:40;;;;;;;3.20;0.55;;;9.20;99.90;;;;;;5067383;28;20402;-70
2023/12/28 01:37:07;;;;;;;3.30;0.70;;;9.20;99.90;;;;;;5054932;28;20063;-72
2023/12/28 01:39:33;;;;;;;1.20;0.28;;;9.20;99.90;;;;;;5064638;28;20056;-72
2023/12/28 01:41:58;;;;;;;0.20;0.20;;;9.30;99.90;;;;;;5052444;28;20029;-71
2023/12/28 01:44:24;;;;;;;0.30;0.30;;;9.30;99.90;;;;;;5058656;28;20036;-71
2023/12/28 01:46:50;;;;;;;4.22;0.50;;;9.30;99.90;;;;;;5059341;28;20040;-71
2023/12/28 01:49:16;;;;;;;1.10;0.60;;;9.30;99.90;;;;;;5063953;28;20711;-73
2023/12/28 01:51:43;;;;;;;1.00;0.63;;;9.30;99.90;;;;;;5066826;28;20036;-74
2023/12/28 01:54:09;;;;;;;0.60;0.57;;;9.30;99.90;;;;;;5059934;28;20056;-72
2023/12/28 01:56:35;;;;;;;0.32;0.32;;;9.30;99.90;;;;;;5060431;28;20033;-72
2023/12/28 01:59:00;;;;;;;0.10;0.10;;;9.30;99.90;;;;;;5041902;28;20040;-70
2023/12/28 02:01:26;;;;;;;0.30;0.30;;;9.30;99.90;;;;;;5065699;28;20107;-72
2023/12/28 02:03:53;;;;;;;0.25;0.20;;;9.30;99.90;;;;;;5062251;28;20064;-74
2023/12/28 02:06:23;;;;;;;1.38;0.55;;;9.30;99.90;;;;;;5064541;28;20119;-73
2023/12/28 02:08:48;;;;;;;1.00;0.80;;;9.30;99.90;;;;;;5067749;28;20041;-77
2023/12/28 02:11:16;;;;;;;0.60;0.60;;;9.40;99.90;;;;;;5064140;28;20074;-73
2023/12/28 02:13:43;;;;;;;0.63;0.63;;;9.40;99.90;;;;;;5063807;28;20131;-70
2023/12/28 02:16:20;;;;;;;0.22;0.22;;;9.40;99.90;;;;;;5061366;28;20090;-72
2023/12/28 02:18:51;;;;;;;0.20;0.20;;;9.50;99.90;;;;;;5058280;28;20159;-70
2023/12/28 02:21:18;;;;;;;0.43;0.35;;;9.40;99.90;;;;;;5066595;28;20443;-71
2023/12/28 02:23:50;;;;;;;0.20;0.20;;;9.50;99.90;;;;;;5064659;28;20099;-72
2023/12/28 02:26:16;;;;;;;0.70;0.25;;;9.50;99.90;;;;;;5061028;28;20098;-74
2023/12/28 02:28:43;;;;;;;4.60;0.50;;;9.50;99.90;;;;;;5064850;28;20143;-70
2023/12/28 02:31:21;;;;;;;0.22;0.22;;;9.50;99.90;;;;;;5059307;28;20036;-73
2023/12/28 02:33:57;;;;;;;0.68;0.65;;;9.60;99.90;;;;;;5064901;28;20036;-72
2023/12/28 02:36:25;;;;;;;0.50;0.50;;;9.50;99.90;;;;;;5063790;28;20302;-72
2023/12/28 02:38:52;;;;;;;0.20;0.20;;;9.60;99.90;;;;;;5063491;28;20036;-75
2023/12/28 02:41:18;;;;;;;0.25;0.25;;;9.70;99.90;;;;;;5061255;28;20036;-75
2023/12/28 02:43:44;;;;;;;0.32;0.20;;;9.70;99.90;;;;;;5065074;28;20110;-72
2023/12/28 02:46:10;;;;;;;3.00;0.38;;;9.70;99.90;;;;;;5058561;28;20511;-73
2023/12/28 02:48:35;;;;;;;0.43;0.30;;;9.70;99.90;;;;;;5050587;28;20042;-76
2023/12/28 02:51:01;;;;;;;1.00;1.00;;;9.80;99.90;;;;;;5062157;28;20549;-72
2023/12/28 02:53:26;;;;;;;0.20;0.20;;;9.80;99.90;;;;;;5069646;28;20040;-72
2023/12/28 02:55:52;;;;;;;2.10;0.38;;;9.80;99.90;;;;;;5059935;28;20067;-75
2023/12/28 02:58:17;;;;;;;0.82;0.82;;;9.80;99.90;;;;;;5067791;28;20068;-75
2023/12/28 03:00:43;;;;;;;0.40;0.40;;;9.80;99.90;;;;;;5061434;28;20056;-72
2023/12/28 03:03:08;;;;;;;0.10;0.10;;;9.80;99.90;;;;;;5052001;28;20066;-72
2023/12/28 03:05:34;;;;;;;0.30;0.30;;;9.90;99.90;;;;;;5062972;28;20048;-70
2023/12/28 03:08:00;;;;;;;2.30;0.10;;;9.90;99.90;;;;;;5066705;28;20036;-72
2023/12/28 03:10:25;;;;;;;0.43;0.43;;;9.90;99.90;;;;;;5067558;28;20045;-72
2023/12/28 03:12:51;;;;;;;0.93;0.20;;;9.80;99.90;;;;;;5063920;28;20064;-71
2023/12/28 03:15:16;;;;;;;0.20;0.20;;;9.80;99.90;;;;;;5063708;28;20033;-73
2023/12/28 03:17:42;;;;;;;0.77;0.68;;;9.70;99.90;;;;;;5068423;28;20067;-78
2023/12/28 03:20:09;;;;;;;1.42;0.40;;;9.70;99.90;;;;;;5093663;28;20115;-75
2023/12/28 03:22:34;;;;;;;3.50;0.32;;;9.80;99.90;;;;;;5060887;28;20537;-74
2023/12/28 03:25:00;;;;;;;2.78;0.68;;;9.80;99.90;;;;;;5057295;28;20040;-73
2023/12/28 03:27:26;;;;;;;0.45;0.30;;;9.80;99.90;;;;;;5068088;28;20036;-76
2023/12/28 03:29:51;;;;;;;0.38;0.38;;;9.80;99.90;;;;;;5068840;28;20040;-75
2023/12/28 03:32:17;;;;;;;0.13;0.13;;;9.90;99.90;;;;;;5064497;28;20070;-74
2023/12/28 03:34:42;;;;;;;0.10;0.10;;;9.90;99.90;;;;;;5069807;28;20134;-71
2023/12/28 03:37:10;;;;;;;4.10;0.95;;;10.00;99.90;;;;;;5061309;28;20036;-75
2023/12/28 03:39:36;;;;;;;0.25;0.25;;;9.90;99.90;;;;;;5070623;28;20051;-73
2023/12/28 03:42:03;;;;;;;1.27;1.02;;;9.90;99.90;;;;;;5063134;28;20045;-75
2023/12/28 03:44:28;;;;;;;0.40;0.30;;;10.00;99.90;;;;;;5070902;28;20032;-72
2023/12/28 03:46:54;;;;;;;0.08;0.08;;;10.00;99.90;;;;;;5064565;28;20805;-72
2023/12/28 03:49:20;;;;;;;0.20;0.20;;;10.00;99.90;;;;;;5069870;28;20072;-71
2023/12/28 03:51:50;;;;;;;0.25;0.25;;;10.00;99.90;;;;;;5064451;28;20080;-73
2023/12/28 03:54:17;;;;;;;0.45;0.17;;;10.10;99.90;;;;;;5069404;28;20056;-72
2023/12/28 03:56:43;;;;;;;0.65;0.65;;;10.00;99.90;;;;;;5063544;28;20068;-71
2023/12/28 03:59:09;;;;;;;0.68;0.57;;;10.10;99.90;;;;;;5070259;28;20483;-75
2023/12/28 04:01:35;;;;;;;1.15;1.10;;;10.10;99.90;;;;;;5064459;28;20036;-71
2023/12/28 04:04:01;;;;;;;0.17;0.15;;;10.10;99.90;;;;;;5072103;28;20438;-75
2023/12/28 04:06:27;;;;;;;0.30;0.30;;;10.10;99.90;;;;;;5065632;28;20072;-73
2023/12/28 04:08:52;;;;;;;0.43;0.43;;;10.10;99.90;;;;;;5069446;28;20119;-73
2023/12/28 04:11:19;;;;;;;0.13;0.13;;;10.10;99.90;;;;;;5042284;28;20041;-77
2023/12/28 04:13:45;;;;;;;0.20;0.20;;;10.10;99.90;;;;;;5070627;28;20032;-75
2023/12/28 04:16:14;;;;;;;0.38;0.32;;;10.20;99.90;;;;;;5065948;28;20094;-72
2023/12/28 04:18:41;;;;;;;0.10;0.10;;;10.30;99.90;;;;;;5070128;28;20032;-72
2023/12/28 04:21:13;;;;;;;0.68;0.52;;;10.20;99.90;;;;;;5065405;28;20036;-75
2023/12/28 04:23:41;;;;;;;0.75;0.30;;;10.20;99.90;;;;;;5063639;28;20067;-73
2023/12/28 04:26:07;;;;;;;0.20;0.20;;;10.10;99.90;;;;;;5048488;28;20185;-75
2023/12/28 04:28:34;;;;;;;0.10;0.10;;;10.10;99.90;;;;;;5066441;28;21088;-72
2023/12/28 04:31:03;;;;;;;0.35;0.35;;;10.10;99.90;;;;;;5089712;28;20036;-72
2023/12/28 04:33:29;;;;;;;3.95;0.60;;;10.10;99.90;;;;;;5064382;28;20086;-73
2023/12/28 04:35:54;;;;;;;0.20;0.20;;;10.10;99.90;;;;;;5068095;28;20037;-74
2023/12/28 04:38:20;;;;;;;2.35;1.50;;;10.10;99.90;;;;;;5065535;28;20531;-71
2023/12/28 04:40:45;;;;;;;0.10;0.10;;;10.10;99.90;;;;;;5068085;28;20086;-74
2023/12/28 04:43:11;;;;;;;0.20;0.20;;;10.10;99.90;;;;;;5064445;28;20172;-74
2023/12/28 04:45:37;;;;;;;0.10;0.10;;;10.10;99.90;;;;;;5059094;28;20613;-74
2023/12/28 04:48:03;;;;;;;0.15;0.15;;;10.00;99.90;;;;;;5064826;28;20079;-72
2023/12/28 04:50:29;;;;;;;0.20;0.20;;;10.00;99.90;;;;;;5071383;28;20044;-74
2023/12/28 04:52:56;;;;;;;0.30;0.30;;;10.00;99.90;;;;;;5061506;28;20044;-72
2023/12/28 04:55:21;;;;;;;0.75;0.22;;;10.10;99.90;;;;;;5063268;28;20082;-74
2023/12/28 04:57:47;;;;;;;0.85;0.85;;;10.10;99.90;;;;;;5064798;28;20045;-75
2023/12/28 05:00:13;;;;;;;0.10;0.10;;;10.10;99.90;;;;;;5064549;28;20457;-74
2023/12/28 05:02:38;;;;;;;0.10;0.10;;;10.10;99.90;;;;;;5065785;28;20040;-77
2023/12/28 05:05:04;;;;;;;2.38;0.22;;;10.20;99.90;;;;;;5065915;28;20494;-75
2023/12/28 05:07:30;;;;;;;0.10;0.10;;;10.20;99.90;;;;;;5070607;28;20051;-71
2023/12/28 05:09:55;;;;;;;3.78;1.33;;;10.20;99.90;;;;;;5063796;28;20044;-79
2023/12/28 05:12:21;;;;;;;0.82;0.82;;;10.20;99.90;;;;;;5069403;28;20083;-75
2023/12/28 05:14:46;;;;;;;0.63;0.60;;;10.20;99.90;;;;;;5048216;28;20076;-72
2023/12/28 05:17:12;;;;;;;0.22;0.20;;;10.30;99.90;;;;;;5064841;28;20068;-75
2023/12/28 05:19:38;;;;;;;0.95;0.63;;;10.30;99.90;;;;;;5060219;28;20080;-72
2023/12/28 05:22:06;;;;;;;0.20;0.20;;;10.30;99.90;;;;;;5065062;28;20041;-72
2023/12/28 05:24:33;;;;;;;0.00;0.00;;;10.30;99.90;;;;;;5069259;28;20048;-71
2023/12/28 05:26:58;;;;;;;3.47;0.73;;;10.30;99.90;;;;;;5044542;28;20122;-75
2023/12/28 05:29:24;;;;;;;0.88;0.88;;;10.40;99.90;;;;;;5091464;28;20048;-73
2023/12/28 05:31:49;;;;;;;0.63;0.63;;;10.40;99.90;;;;;;5063698;28;20048;-73
2023/12/28 05:34:15;;;;;;;0.20;0.20;;;10.40;99.90;;;;;;5062558;28;20082;-73
2023/12/28 05:36:41;;;;;;;0.10;0.10;;;10.40;99.90;;;;;;5063879;28;20029;-75
2023/12/28 05:39:09;;;;;;;1.35;0.52;;;10.40;99.90;;;;;;5069726;28;20032;-74
2023/12/28 05:41:35;;;;;;;0.10;0.10;;;10.40;99.90;;;;;;5062011;28;20040;-73
2023/12/28 05:44:00;;;;;;;0.15;0.15;;;10.40;99.90;;;;;;5098272;28;20475;-77
2023/12/28 05:46:26;;;;;;;0.47;0.47;;;10.40;99.90;;;;;;5072151;28;20482;-70
2023/12/28 05:48:51;;;;;;;0.20;0.20;;;10.40;99.90;;;;;;5066595;28;20519;-78
2023/12/28 05:51:18;;;;;;;0.30;0.30;;;10.40;99.90;;;;;;5064762;28;20139;-77
2023/12/28 05:53:44;;;;;;;0.30;0.30;;;10.40;99.90;;;;;;5063277;28;20063;-75
2023/12/28 05:56:09;;;;;;;6.32;1.20;;;10.40;99.90;;;;;;5063089;28;20033;-77
2023/12/28 05:58:36;;;;;;;0.38;0.38;;;10.40;99.90;;;;;;5064672;28;20040;-77
2023/12/28 06:01:04;;;;;;;1.48;0.85;;;10.40;99.90;;;;;;5065022;28;20047;-72
2023/12/28 06:03:30;;;;;;;0.15;0.15;;;10.40;99.90;;;;;;5061439;28;20471;-75
2023/12/28 06:05:56;;;;;;;0.55;0.55;;;10.30;99.90;;;;;;5062813;28;20032;-75
2023/12/28 06:08:22;;;;;;;0.10;0.10;;;10.40;99.90;;;;;;5066309;28;20499;-74
2023/12/28 06:10:47;;;;;;;0.10;0.10;;;10.30;99.90;;;;;;5060070;28;20052;-74
2023/12/28 06:13:13;;;;;;;0.38;0.38;;;10.30;99.90;;;;;;5064943;28;20036;-74
2023/12/28 06:15:38;;;;;;;0.65;0.65;;;10.30;99.90;;;;;;5059985;28;20044;-77
2023/12/28 06:18:04;;;;;;;0.20;0.20;;;10.30;99.90;;;;;;5062210;28;20052;-76
2023/12/28 06:20:30;;;;;;;0.10;0.10;;;10.30;99.90;;;;;;5062194;28;20029;-75
2023/12/28 06:22:55;;;;;;;0.22;0.22;;;10.30;99.90;;;;;;5061355;28;20494;-78
2023/12/28 06:25:21;;;;;;;3.63;0.88;;;10.30;99.90;;;;;;5065598;28;20041;-74
2023/12/28 06:27:46;;;;;;;3.60;0.77;;;10.40;99.90;;;;;;5065055;28;20051;-73
2023/12/28 06:30:12;;;;;;;0.10;0.10;;;10.40;99.90;;;;;;5066221;28;20177;-72
2023/12/28 06:32:38;;;;;;;0.20;0.10;;;10.40;99.90;;;;;;5071584;28;20048;-76
2023/12/28 06:35:04;;;;;;;12.15;0.73;;;10.40;99.90;;;;;;5063231;28;20399;-74
2023/12/28 06:37:30;;;;;;;1.02;1.02;;;10.40;99.90;;;;;;5068721;28;20502;-77
2023/12/28 06:39:55;;;;;;;1.63;0.90;;;10.40;99.90;;;;;;5068723;28;20037;-71
2023/12/28 06:42:21;;;;;;;2.85;1.75;;;10.50;99.90;;;;;;5064879;28;20039;-72
2023/12/28 06:44:46;;;;;;;0.32;0.13;;;10.50;99.90;;;;;;5073320;28;20059;-78
2023/12/28 06:47:12;;;;;;;0.10;0.10;;;10.50;99.90;;;;;;5065431;28;20091;-72
2023/12/28 06:49:37;;;;;;;0.32;0.32;;;10.50;99.90;;;;;;5070020;28;20039;-75
2023/12/28 06:52:04;;;;;;;0.10;0.10;;;10.60;99.90;;;;;;5061353;28;20098;-73
2023/12/28 06:54:30;;;;;;;0.20;0.20;;;10.60;99.90;;;;;;5070584;28;20040;-77
2023/12/28 06:56:55;;;;;;;0.82;0.68;;;10.60;99.90;;;;;;5062200;28;20051;-76
2023/12/28 06:59:21;;;;;;;1.95;1.20;;;10.60;99.90;;;;;;5063214;28;20124;-73
2023/12/28 07:01:48;;;;;;;0.65;0.20;;;10.60;99.90;;;;;;5065909;28;20037;-73
2023/12/28 07:04:13;;;;;;;0.10;0.10;;;10.60;99.90;;;;;;5066953;28;20441;-72
2023/12/28 07:06:39;;;;;;;1.25;0.85;;;10.60;99.90;;;;;;5064648;28;20154;-73
2023/12/28 07:09:05;;;;;;;0.10;0.10;;;10.60;99.90;;;;;;5070913;28;20028;-74
2023/12/28 07:11:31;;;;;;;0.20;0.20;;;10.60;99.90;;;;;;5065224;28;20043;-76
2023/12/28 07:13:56;;;;;;;10.70;0.40;;;10.50;99.90;;;;;;5065845;28;20740;-75
2023/12/28 07:16:22;;;;;;;0.50;0.50;;;10.50;99.90;;;;;;5058900;28;20036;-76
2023/12/28 07:18:47;;;;;;;0.32;0.17;;;10.50;99.90;;;;;;5070309;28;20090;-74
2023/12/28 07:21:13;;;;;;;1.17;0.55;;;10.50;99.90;;;;;;5065569;28;20037;-72
2023/12/28 07:23:39;;;;;;;0.85;0.85;;;10.50;99.90;;;;;;5068656;28;20558;-72
2023/12/28 07:26:05;;;;;;;0.75;0.50;;;10.50;99.90;;;;;;5064162;28;20123;-77
2023/12/28 07:28:31;;;;;;;0.05;0.05;;;10.50;99.90;;;;;;5067682;28;20051;-73
2023/12/28 07:30:56;;;;;;;19.30;0.85;;;10.50;99.90;;;;;;5065081;28;20044;-71
2023/12/28 07:33:22;;;;;;;4.38;0.85;;;10.50;99.90;;;;;;5072753;28;20054;-80
2023/12/28 07:35:48;;;;;;;0.43;0.43;;;10.50;99.90;;;;;;5065387;28;20060;-74
2023/12/28 07:38:13;;;;;;;0.10;0.10;;;10.50;99.90;;;;;;5065208;28;20039;-79
2023/12/28 07:40:39;;;;;;;1.27;0.60;;;10.50;99.90;;;;;;5065433;28;20440;-75
2023/12/28 07:43:05;;;;;;;0.10;0.10;;;10.50;99.90;;;;;;5066995;28;20143;-73
2023/12/28 07:45:31;;;;;;;2.78;0.15;;;10.50;99.90;;;;;;5065658;28;20044;-74
2023/12/28 07:47:58;;;;;;;0.55;0.55;;;10.50;99.90;;;;;;5069049;28;20054;-72
2023/12/28 07:50:24;;;;;;;0.70;0.70;;;10.50;99.90;;;;;;5064519;28;20470;-72
2023/12/28 07:52:50;;;;;;;0.55;0.55;;;10.40;99.90;;;;;;5068092;28;20072;-71
2023/12/28 07:55:15;;;;;;;0.55;0.47;;;10.40;99.90;;;;;;5066600;28;20103;-73
2023/12/28 07:57:41;;;;;;;0.10;0.10;;;10.40;99.90;;;;;;5070589;28;20044;-72
2023/12/28 08:00:07;;;;;;;1.65;0.50;;;10.30;99.90;;;;;;5067241;28;20063;-74
2023/12/28 08:02:33;;;;;;;0.10;0.10;;;10.30;99.90;;;;;;5046070;28;20037;-74
2023/12/28 08:04:59;;;;;;;1.00;0.57;;;10.20;99.90;;;;;;5090113;28;20572;-73
2023/12/28 08:07:24;;;;;;;1.75;0.60;;;10.20;99.90;;;;;;5064690;28;20048;-71
2023/12/28 08:09:50;;;;;;;3.53;0.52;;;10.20;99.90;;;;;;5068806;28;20040;-75
2023/12/28 08:12:16;;;;;;;0.85;0.20;;;10.30;99.90;;;;;;5055501;28;20032;-74
2023/12/28 08:14:43;;;;;;;0.82;0.22;;;10.30;99.90;;;;;;5067734;28;20062;-71
2023/12/28 08:17:08;;;;;;;0.35;0.35;;;10.30;99.90;;;;;;5065550;28;20442;-72
2023/12/28 08:19:34;;;;;;;0.10;0.10;;;10.30;99.90;;;;;;5070122;28;20032;-75
2023/12/28 08:21:59;;;;;;;4.30;0.88;;;10.30;99.90;;;;;;5046922;28;20036;-73
2023/12/28 08:24:25;;;;;;;1.45;0.47;;;10.40;99.90;;;;;;5050507;28;20037;-73
2023/12/28 08:26:50;;;;;;;0.80;0.75;;;10.40;99.90;;;;;;5056838;28;20044;-73
2023/12/28 08:29:17;;;;;;;4.85;0.43;;;10.40;99.90;;;;;;5093889;28;20075;-72
2023/12/28 08:31:43;;;;;;;3.30;1.23;;;10.40;99.90;;;;;;5064316;28;20060;-73
2023/12/28 08:34:09;;;;;;;0.30;0.20;;;10.30;99.90;;;;;;5062795;28;20158;-71
2023/12/28 08:36:34;;;;;;;3.30;0.80;;;10.30;99.90;;;;;;5066677;28;20078;-74
2023/12/28 08:39:00;;;;;;;0.93;0.90;;;10.30;99.90;;;;;;5063317;28;20337;-75
2023/12/28 08:41:26;;;;;;;0.82;0.82;;;10.30;99.90;;;;;;5060155;28;20041;-72
2023/12/28 08:43:53;;;;;;;0.05;0.03;;;10.30;99.90;;;;;;5070862;28;20105;-75
2023/12/28 08:46:21;;;;;;;0.40;0.40;;;10.30;99.90;;;;;;5053944;28;20387;-73
2023/12/28 08:48:46;;;;;;;0.20;0.20;;;10.30;99.90;;;;;;5056940;28;20044;-74
2023/12/28 08:51:14;;;;;;;0.10;0.10;;;10.30;99.90;;;;;;5057295;28;20040;-75
2023/12/28 08:53:40;;;;;;;0.15;0.10;;;10.40;99.90;;;;;;5066326;28;20454;-69
2023/12/28 08:56:26;;;;;;;0.20;0.20;;;10.40;99.90;;;;;;5051514;28;20330;-70
2023/12/28 08:58:54;;;;;;;0.20;0.20;;;10.40;99.90;;;;;;5063016;28;20037;-74
2023/12/28 09:01:23;;;;;;;0.10;0.10;;;10.40;99.90;;;;;;5062596;28;20044;-72
2023/12/28 09:03:50;;;;;;;0.10;0.10;;;10.50;99.90;;;;;;5063445;28;20067;-70
2023/12/28 09:06:16;;;;;;;0.20;0.20;;;10.50;99.90;;;;;;5065711;28;20047;-71
2023/12/28 09:08:43;;;;;;;15.10;0.93;;;10.50;99.90;;;;;;5067993;28;20033;-78
2023/12/28 09:11:12;;;;;;;0.45;0.10;;;10.50;99.90;;;;;;5063107;28;20032;-72
2023/12/28 09:13:38;;;;;;;0.25;0.25;;;10.60;99.90;;;;;;5067910;28;20098;-75
2023/12/28 09:16:05;;;;;;;0.10;0.10;;;10.60;99.90;;;;;;5088518;28;20040;-73
2023/12/28 09:18:31;;;;;;;0.25;0.22;;;10.50;99.90;;;;;;5065639;28;20036;-71
2023/12/28 09:20:56;;;;;;;0.52;0.38;;;10.60;99.90;;;;;;5062915;28;20424;-71
2023/12/28 09:23:22;;;;;;;1.25;1.00;;;10.70;99.90;;;;;;5069118;28;20402;-75
2023/12/28 09:25:49;;;;;;;0.10;0.10;;;10.60;99.90;;;;;;5063855;28;20505;-72
2023/12/28 09:28:14;;;;;;;0.28;0.28;;;10.70;99.90;;;;;;5066640;28;20086;-73
2023/12/28 09:30:40;;;;;;;3.60;1.00;;;10.70;99.90;;;;;;5064834;28;20440;-71
2023/12/28 09:33:05;;;;;;;1.65;0.63;;;10.70;99.90;;;;;;5065553;28;20036;-69
2023/12/28 09:35:31;;;;;;;0.20;0.20;;;10.70;99.90;;;;;;5064890;28;20054;-74
2023/12/28 09:37:57;;;;;;;0.10;0.10;;;10.70;99.90;;;;;;5063994;28;20040;-76
2023/12/28 09:40:24;;;;;;;0.55;0.55;;;10.60;99.90;;;;;;5060561;28;20036;-72
2023/12/28 09:43:18;;;;;;;0.20;0.20;;;10.60;99.90;;;;;;5065911;28;20024;-72
2023/12/28 09:45:47;;;;;;;0.30;0.30;;;10.60;99.90;;;;;;5064084;28;20503;-73
2023/12/28 09:48:15;;;;;;;0.88;0.73;;;10.60;99.90;;;;;;5062744;28;20040;-70
2023/12/28 09:50:41;;;;;;;0.45;0.28;;;10.60;99.90;;;;;;5057638;28;20052;-72
2023/12/28 09:53:07;;;;;;;1.45;0.20;;;10.60;99.90;;;;;;5063985;28;20032;-68
2023/12/28 09:55:32;;;;;;;1.88;0.57;;;10.70;99.90;;;;;;5064720;28;20041;-71
2023/12/28 09:57:59;;;;;;;0.45;0.20;;;10.70;99.90;;;;;;5060579;28;20123;-72
2023/12/28 10:00:25;;;;;;;0.80;0.20;;;10.70;99.90;;;;;;5045582;28;20109;-69
2023/12/28 10:02:50;;;;;;;0.40;0.40;;;10.70;99.90;;;;;;5063741;28;20036;-73
2023/12/28 10:05:16;;;;;;;0.20;0.20;;;10.70;99.90;;;;;;5063523;28;20301;-74
2023/12/28 10:07:43;;;;;;;0.28;0.28;;;10.80;99.90;;;;;;5057201;28;20045;-72
2023/12/28 10:10:09;;;;;;;0.35;0.20;;;10.80;99.90;;;;;;5066222;28;20665;-76
2023/12/28 10:12:36;;;;;;;2.22;0.45;;;10.80;99.90;;;;;;5058839;28;20515;-70
2023/12/28 10:15:02;;;;;;;2.47;2.22;;;10.80;99.90;;;;;;5063332;28;20445;-73
2023/12/28 10:17:27;;;;;;;1.38;0.22;;;10.80;99.90;;;;;;5060948;28;20044;-72
2023/12/28 10:19:53;;;;;;;2.80;1.10;;;10.80;99.90;;;;;;5052034;28;20037;-76
2023/12/28 10:22:19;;;;;;;0.20;0.20;;;10.80;99.90;;;;;;5049395;28;20040;-71
2023/12/28 10:24:45;;;;;;;5.13;0.50;;;10.80;99.90;;;;;;5059524;28;20045;-74
2023/12/28 10:27:13;;;;;;;0.30;0.30;;;10.80;99.90;;;;;;5085338;28;20313;-73
2023/12/28 10:29:38;;;;;;;19.27;2.75;;;10.80;99.90;;;;;;5067696;28;20044;-74
2023/12/28 10:32:04;;;;;;;1.15;0.80;;;10.80;99.90;;;;;;5088346;28;20462;-79
2023/12/28 10:34:30;;;;;;;1.65;0.30;;;10.80;99.90;;;;;;5047741;28;20486;-74
2023/12/28 10:36:59;;;;;;;6.43;0.73;;;10.70;99.90;;;;;;5065587;28;20048;-74
2023/12/28 10:39:25;;;;;;;0.95;0.45;;;10.70;99.90;;;;;;5054857;28;20141;-78
2023/12/28 10:41:54;;;;;;;0.40;0.40;;;10.70;99.90;;;;;;5062388;28;20040;-80
2023/12/28 10:44:22;;;;;;;1.77;1.38;;;10.70;99.90;;;;;;5065783;28;20111;-71
2023/12/28 10:46:55;;;;;;;1.02;1.00;;;10.70;99.90;;;;;;5084934;28;20044;-80
2023/12/28 10:49:24;;;;;;;3.42;1.85;;;10.70;99.90;;;;;;5079316;28;20130;-76
2023/12/28 10:51:52;;;;;;;0.30;0.30;;;10.70;99.90;;;;;;5047717;28;20052;-78
2023/12/28 10:54:36;;;;;;;3.15;0.20;;;10.70;99.90;;;;;;5052755;28;20052;-75
2023/12/28 10:57:29;;;;;;;0.35;0.35;;;10.70;99.90;;;;;;5057145;28;20083;-77
2023/12/28 11:00:10;;;;;;;0.13;0.13;;;10.70;99.90;;;;;;5098163;28;20033;-72
2023/12/28 11:02:44;;;;;;;1.27;0.35;;;10.70;99.90;;;;;;5049658;28;20037;-78
2023/12/28 11:05:11;;;;;;;0.10;0.10;;;10.70;99.90;;;;;;5058805;28;20037;-76
2023/12/28 11:07:39;;;;;;;1.17;0.17;;;10.70;99.90;;;;;;5059734;28;20051;-74
2023/12/28 11:10:06;;;;;;;0.47;0.47;;;10.70;99.90;;;;;;5051993;28;20041;-72
2023/12/28 11:12:33;;;;;;;6.65;0.20;;;10.70;99.90;;;;;;5061855;28;20052;-77
2023/12/28 11:14:59;;;;;;;1.70;0.90;;;10.80;99.90;;;;;;5064859;28;20048;-78
2023/12/28 11:17:25;;;;;;;0.40;0.40;;;10.80;99.90;;;;;;5062216;28;20033;-75
2023/12/28 11:19:53;;;;;;;0.17;0.13;;;10.80;99.90;;;;;;5063145;28;20032;-76
2023/12/28 11:22:20;;;;;;;1.15;0.77;;;10.90;99.90;;;;;;5064857;28;20494;-72
2023/12/28 11:24:46;;;;;;;0.10;0.10;;;10.90;99.90;;;;;;5070135;28;20040;-75
2023/12/28 11:27:12;;;;;;;5.25;0.47;;;10.80;99.90;;;;;;5065803;28;20540;-74
2023/12/28 11:29:38;;;;;;;0.50;0.50;;;10.90;99.90;;;;;;5068913;28;20053;-75
2023/12/28 11:32:04;;;;;;;0.20;0.20;;;10.90;99.90;;;;;;5060925;28;20043;-74
2023/12/28 11:34:33;;;;;;;0.20;0.20;;;10.80;99.90;;;;;;5069688;28;20032;-76
2023/12/28 11:37:03;;;;;;;3.50;0.22;;;10.80;99.90;;;;;;5065598;28;20051;-79
2023/12/28 11:39:38;;;;;;;0.08;0.08;;;10.80;99.90;;;;;;5053720;28;20482;-76
2023/12/28 11:42:09;;;;;;;0.38;0.38;;;10.80;99.90;;;;;;5069315;28;20483;-74
2023/12/28 11:44:43;;;;;;;7.10;0.43;;;10.80;99.90;;;;;;5095364;28;20494;-74
2023/12/28 11:47:16;;;;;;;0.20;0.20;;;10.80;99.90;;;;;;5068485;28;20483;-71
2023/12/28 11:49:47;;;;;;;0.55;0.55;;;10.80;99.90;;;;;;5070754;28;20445;-73
2023/12/28 11:52:29;;;;;;;0.20;0.20;;;10.80;99.90;;;;;;5068461;28;20045;-79
2023/12/28 11:54:55;;;;;;;1.10;0.47;;;10.80;99.90;;;;;;5088953;28;20043;-73
2023/12/28 11:57:22;;;;;;;0.17;0.17;;;10.70;99.90;;;;;;5060726;28;20687;-77
2023/12/28 11:59:55;;;;;;;0.30;0.30;;;10.80;99.90;;;;;;5065328;28;20103;-75
2023/12/28 12:02:21;;;;;;;0.00;0.00;;;10.80;99.90;;;;;;5062500;28;20036;-76
2023/12/28 12:04:46;;;;;;;0.03;0.03;;;10.80;99.90;;;;;;5083971;28;20469;-74
2023/12/28 12:07:12;;;;;;;0.25;0.25;;;10.80;99.90;;;;;;5070583;28;20410;-75
2023/12/28 12:09:38;;;;;;;5.22;0.40;;;10.80;99.90;;;;;;5069548;28;20518;-75
2023/12/28 12:12:06;;;;;;;0.40;0.40;;;10.80;99.90;;;;;;5061307;28;20422;-77
2023/12/28 12:14:32;;;;;;;0.25;0.25;;;10.80;99.90;;;;;;5059428;28;20182;-76
2023/12/28 12:17:01;;;;;;;0.40;0.40;;;10.80;99.90;;;;;;5068317;28;20123;-74
2023/12/28 12:19:27;;;;;;;8.88;1.17;;;10.80;99.90;;;;;;5063642;28;20700;-71
2023/12/28 12:21:53;;;;;;;0.95;0.95;;;10.90;99.90;;;;;;5064609;28;20560;-76
2023/12/28 12:24:19;;;;;;;0.32;0.32;;;10.90;99.90;;;;;;5065411;28;20036;-74
2023/12/28 12:26:51;;;;;;;0.35;0.28;;;10.80;99.90;;;;;;5066598;28;20048;-76
2023/12/28 12:29:17;;;;;;;0.10;0.10;;;10.80;99.90;;;;;;5057137;28;20116;-76
2023/12/28 12:31:44;;;;;;;0.30;0.30;;;10.80;99.90;;;;;;5053322;28;20404;-77
2023/12/28 12:34:10;;;;;;;0.80;0.80;;;10.80;99.90;;;;;;5049778;28;20498;-73
2023/12/28 12:36:36;;;;;;;0.75;0.73;;;10.80;99.90;;;;;;5071120;28;20475;-77
2023/12/28 12:39:05;;;;;;;0.57;0.57;;;10.80;99.90;;;;;;5050764;28;20044;-74
2023/12/28 12:41:35;;;;;;;15.95;1.90;;;10.80;99.90;;;;;;5069423;28;20488;-73
2023/12/28 12:44:00;;;;;;;13.00;0.75;;;10.80;99.90;;;;;;5051411;28;20116;-76
2023/12/28 12:46:26;;;;;;;0.10;0.10;;;10.80;99.90;;;;;;5052067;28;20112;-77
2023/12/28 12:49:02;;;;;;;0.68;0.68;;;10.80;99.90;;;;;;5065470;28;20202;-76